Weather observations for the past three days for
Falfurrias, Brooks County Airport
Imperial (Metric)
Date Time (cdt) Wind (mph) Vis. (mi.) Weather Sky Cond. Temperature (ºF) Relative Humidity Wind Chill (°F) Heat Index (°F) Pressure Precipitation (in)
Air Dwpt 6 hour altimeter (in) sea level (mb) 1 hr 3 hr 6 hr
Max. Min.
30 22:55 SE 13 10.00 Fair CLR 84 78.3 83% 95 29.94 0.0
30 22:35 SE 10 10.00 Fair CLR 84.2 78.3 82% 95 29.93 0.0
30 22:15 SE 10 10.00 Fair CLR 84.4 77.9 81% 95 29.93 0.0
30 21:55 SE 9 10.00 Fair CLR 84.7 77.5 79% 96 29.92 0.0
30 21:35 SE 10 10.00 Fair CLR 85.1 77 77% 96 29.91 0.0
30 21:15 SE 14 10.00 Fair CLR 85.5 76.8 75% 96 29.9 0.0
30 20:55 SE 12 G 20 10.00 Fair CLR 86.2 75.9 72% 96 29.9 0.0
30 20:35 SE 15 G 21 10.00 Fair CLR 86.5 75.2 69% 96 29.89 0.0
30 20:15 SE 10 10.00 Fair CLR 87.1 74.8 67% 96 29.89 0.0
30 19:55 SE 12 G 18 10.00 Fair CLR 87.8 74.7 65% 97 29.88 0.0
30 19:35 SE 15 G 23 10.00 Fair CLR 89.2 75.4 64% 100 29.88 0.0
30 19:15 SE 16 G 24 10.00 Fair CLR 90.9 74.7 59% 101 29.87 0.0
30 18:55 SE 16 G 23 10.00 Fair CLR 91.8 74.7 57% 102 29.87 0.0
30 18:35 SE 13 10.00 Fair CLR 91.6 74.1 57% 102 29.87 0.0
30 18:15 SE 13 G 21 10.00 Fair CLR 92.3 73.9 55% 102 29.87 0.0
30 17:55 E 14 G 22 10.00 Fair CLR 95 74.5 52% 106 29.86 0.0
30 17:35 SE 16 G 24 10.00 Fair CLR 96.4 74.5 49% 108 29.86 0.0
30 17:15 SE 14 G 24 10.00 Fair CLR 96.6 74.3 49% 108 29.85 0.0
30 16:55 SE 16 G 24 10.00 Fair CLR 97.5 74.3 47% 109 29.85 0.0
30 16:35 E 15 G 25 10.00 Fair CLR 97 74.7 49% 109 29.86 0.0
30 16:15 E 20 G 24 10.00 Fair CLR 98.1 73.9 46% 110 29.86 0.0
30 15:55 SE 18 G 24 10.00 Fair CLR 97.9 73.2 45% 108 29.86 0.0
30 15:35 E 12 10.00 Fair CLR 102.9 66.4 31% 108 29.87 0.0
30 15:15 E 9 10.00 A Few Clouds FEW070 101.3 66.4 32% 106 29.88 0.0
30 14:55 SE 8 10.00 A Few Clouds FEW070 100.9 66.2 32% 105 29.89 0.0
30 14:35 Vrbl 6 10.00 A Few Clouds FEW340 102 66.9 32% 107 29.9 0.0
30 14:15 S 10 G 20 10.00 Fair CLR 100.9 66.9 33% 106 29.92 0.0
30 13:55 SE 13 G 20 10.00 Partly Cloudy FEW065 SCT370 99.9 66.7 34% 105 29.93 0.0
30 13:35 SE 12 G 17 10.00 Fair CLR 99.7 68.7 37% 106 29.93 0.0
30 13:15 S 8 G 18 10.00 A Few Clouds FEW060 99.1 67.5 36% 104 29.94 0.0
30 12:55 S 10 10.00 A Few Clouds FEW055 98.2 70.2 40% 106 29.96 0.0
30 12:35 Vrbl 6 10.00 A Few Clouds FEW055 97.2 70.7 42% 105 29.97 0.0
30 12:15 SE 10 10.00 Fair CLR 97.3 71.2 43% 106 29.97 0.0
30 11:55 S 9 10.00 Fair CLR 96.4 70.9 44% 104 29.98 0.0
30 11:35 S 10 10.00 Fair CLR 94.8 71.6 47% 103 29.98 0.0
30 11:15 SE 10 10.00 Fair CLR 93.7 72.7 50% 103 29.99 0.0
30 10:55 SE 9 10.00 Fair CLR 91.9 74.1 56% 102 29.99 0.0
30 10:35 S 10 10.00 Fair CLR 91 75.9 61% 103 29.99 0.0
30 10:15 SE 10 10.00 Fair CLR 89.2 76.8 67% 102 29.99 0.0
30 09:55 SE 10 10.00 Fair CLR 88.2 77.7 71% 101 29.99 0.0
30 09:35 S 9 10.00 Fair CLR 86.7 78.1 76% 100 29.98 0.0
30 09:15 SE 7 10.00 Fair CLR 85.1 78.8 81% 98 29.98 0.0
30 08:55 SE 7 10.00 Fair CLR 83.1 79.5 89% 95 29.98 0.0
30 08:35 SE 6 10.00 Fair CLR 81 79.7 96% 90 29.97 0.0
30 08:15 SE 6 10.00 Fair CLR 79.2 78.6 98% 84 29.97 0.0
30 07:55 SE 5 9.00 Fair CLR 77.9 77.4 98% 80 29.97 0.0
30 07:35 SE 5 9.00 Fair CLR 77.4 76.8 98% 79 29.96 0.0
30 07:15 SE 6 10.00 Fair CLR 77.4 76.8 98% 79 29.96 0.0
30 06:55 E 3 10.00 Fair CLR 77.2 76.6 98% 78 29.96 0.0
30 06:35 SE 5 10.00 Fair CLR 77.2 76.3 97% 78 29.95 0.0
30 06:15 E 5 10.00 Fair CLR 77.2 76.3 97% 78 29.95 0.0
30 05:55 E 6 10.00 Fair CLR 76.8 75.6 96% 77 29.96 0.0
30 05:35 E 5 10.00 Fair CLR 77 75.7 96% 78 29.95 0.0
30 05:15 E 3 10.00 Fair CLR 77.5 76.3 96% 79 29.95 0.0
30 04:55 E 3 10.00 Fair CLR 77.4 76.1 96% 79 29.95 0.0
30 04:35 SE 3 10.00 Fair CLR 77.9 76.6 96% 80 29.95 0.0
30 04:15 E 5 10.00 Fair CLR 78.1 76.5 95% 81 29.95 0.0
30 03:55 E 5 10.00 Fair CLR 78.3 76.6 95% 81 29.96 0.0
30 03:35 SE 3 10.00 Fair CLR 78.4 76.6 94% 82 29.96 0.0
30 03:15 E 3 10.00 Fair CLR 78.6 76.8 94% 82 29.96 0.0
30 02:55 E 3 10.00 Fair CLR 78.8 76.6 93% 83 29.97 0.0
30 02:35 E 3 10.00 Fair CLR 79.2 76.6 92% 84 29.97 0.0
30 02:15 E 5 10.00 Fair CLR 79.5 76.6 91% 84 29.98 0.0
30 01:55 E 3 10.00 Fair CLR 80.1 77.2 91% 86 29.98 0.0
30 01:35 SE 5 10.00 Fair CLR 80.6 77.7 91% 88 29.98 0.0
30 01:15 SE 3 10.00 Fair CLR 81 77.7 90% 88 29.98 0.0
30 00:55 SE 6 10.00 Fair CLR 81.3 77.9 89% 89 29.98 0.0
30 00:35 SE 8 10.00 Fair CLR 81.7 77.9 88% 90 29.98 0.0
30 00:15 SE 9 10.00 Fair CLR 82 77.9 87% 91 29.98 0.0
29 23:55 SE 8 10.00 Fair CLR 82.4 77.9 86% 92 29.98 0.0
29 23:35 SE 9 10.00 Fair CLR 82.6 77.9 86% 92 29.99 0.0
29 23:15 SE 7 10.00 Fair CLR 82.8 77.9 85% 92 29.98 0.0
29 22:55 SE 8 10.00 Fair CLR 83.1 77.7 84% 93 29.98 0.0
29 22:35 SE 7 10.00 Fair CLR 83.5 77.4 82% 93 29.98 0.0
29 22:15 SE 9 10.00 Fair CLR 83.8 77.2 80% 94 29.97 0.0
29 21:55 SE 9 10.00 Fair CLR 84.2 76.6 78% 94 29.97 0.0
29 21:35 SE 10 10.00 Fair CLR 84.9 76.3 75% 95 29.96 0.0
29 21:15 SE 10 10.00 Fair CLR 85.3 75.2 72% 94 29.95 0.0
29 20:55 SE 7 10.00 Fair CLR 85.8 74.7 69% 94 29.95 0.0
29 20:35 SE 9 10.00 Fair CLR 86.4 74.3 67% 95 29.94 0.0
29 20:15 SE 9 9.00 Fair CLR 86.9 74.3 66% 96 29.93 0.0
29 19:55 SE 13 9.00 Fair CLR 87.8 73.6 63% 96 29.93 0.0
29 19:35 SE 13 9.00 Fair CLR 88.9 73.6 61% 97 29.93 0.0
29 19:15 SE 14 9.00 Fair CLR 90.5 72.3 55% 98 29.92 0.0
29 18:55 SE 14 G 22 10.00 Fair CLR 93.6 71.8 49% 101 29.92 0.0
29 18:35 SE 12 10.00 Fair CLR 95.2 70.2 44% 102 29.91 0.0
29 18:15 SE 15 10.00 Fair CLR 95 71.1 46% 102 29.91 0.0
29 17:55 SE 12 G 22 10.00 Fair CLR 96.3 70.5 43% 104 29.9 0.0
29 17:35 SE 12 G 20 10.00 Fair CLR 97.3 70.3 42% 105 29.9 0.0
29 17:15 SE 13 G 20 10.00 Fair CLR 97 70.2 42% 104 29.91 0.0
29 16:55 SE 12 G 20 10.00 Fair CLR 96.6 70.7 43% 104 29.91 0.0
29 16:35 SE 13 10.00 Fair CLR 96.6 71.6 44% 105 29.92 0.0
29 16:15 SE 15 10.00 Fair CLR 96.4 71.6 45% 105 29.93 0.0
29 15:55 SE 16 10.00 Fair CLR 96.3 71.2 44% 104 29.93 0.0
29 15:35 SE 15 G 22 10.00 Fair CLR 97 71.1 43% 105 29.94 0.0
29 15:15 SE 15 G 23 10.00 Fair CLR 97.9 69.3 39% 104 29.95 0.0
29 14:55 SE 15 G 24 10.00 Fair CLR 97.3 71.6 43% 106 29.96 0.0
29 14:35 SE 21 G 26 10.00 Fair and Breezy CLR 97.7 71.8 43% 107 29.97 0.0
29 14:15 SE 13 10.00 A Few Clouds FEW060 97.3 70.9 42% 105 29.97 0.0
29 13:55 SE 14 G 17 10.00 A Few Clouds FEW360 100.4 68.4 35% 107 29.98 0.0
29 13:35 SE 9 10.00 A Few Clouds FEW055 100.6 68.2 35% 107 29.99 0.0
29 13:15 S 8 10.00 A Few Clouds FEW060 98.8 69.3 38% 105 30 0.0
29 12:55 Calm 10.00 A Few Clouds FEW055 99 70 39% 106 30 0.0
29 12:35 Vrbl 3 10.00 Fair CLR 96.6 69.8 42% 103 30.01 0.0
29 11:15 Vrbl 5 10.00 A Few Clouds FEW035 91.8 75.9 60% 104 30.04 0.0
29 10:55 E 10 10.00 Partly Cloudy SCT031 90.9 76.6 63% 104 30.05 0.0
29 10:35 SE 8 10.00 A Few Clouds FEW026 91.2 76.3 62% 104 30.05 0.0
29 10:15 S 9 10.00 A Few Clouds FEW023 88.9 77.5 69% 102 30.04 0.0
29 09:55 SE 8 10.00 A Few Clouds FEW020 87.1 77.7 74% 100 30.04 0.0
29 09:35 Calm 10.00 Fair CLR 87.1 78.8 76% 101 30.03 0.0
29 09:15 SE 7 10.00 Fair CLR 85.3 78.6 81% 98 30.03 0.0
29 08:55 SE 6 10.00 Fair CLR 82.9 79.2 88% 94 30.02 0.0
29 08:35 E 5 10.00 Fair CLR 80.6 78.8 94% 88 30.02 0.0
29 08:15 E 6 8.00 Fair CLR 79.2 77.9 96% 84 30.01 0.0
29 07:55 E 6 8.00 Fair CLR 77.5 76.3 96% 79 30.01 0.0
29 07:35 NE 5 8.00 Fair CLR 76.5 74.8 95% 77 30 0.0
29 07:15 NE 5 9.00 Fair CLR 76.5 74.8 95% 77 30 0.0
29 06:55 SE 5 9.00 Fair CLR 76.8 75.2 95% 77 29.99 0.0
29 06:35 E 5 9.00 Fair CLR 76.8 75 94% 78 29.99 0.0
29 06:15 E 5 10.00 Fair CLR 76.8 75 94% 78 29.99 0.0
29 05:55 E 6 10.00 Fair CLR 76.6 74.1 92% 77 29.99 0.0
29 05:35 E 3 10.00 Fair CLR 77 73.9 90% 78 29.99 0.0
29 05:15 Calm 10.00 Fair CLR 77.5 73.9 89% 79 29.99 0.0
29 04:55 Calm 10.00 Fair CLR 78.1 74.7 89% 81 29.99 0.0
29 04:35 Calm 9.00 Fair CLR 78.3 74.8 89% 81 29.98 0.0
29 04:15 NE 3 10.00 Fair CLR 78.8 75.2 89% 82 29.98 0.0
29 03:55 E 3 10.00 Fair CLR 79.3 75.9 89% 84 29.98 0.0
29 03:35 SE 5 10.00 Fair CLR 79.7 75.7 88% 85 29.98 0.0
29 03:15 E 3 10.00 Fair CLR 79.9 75.7 87% 85 29.98 0.0
29 02:55 SE 3 10.00 Fair CLR 80.2 76.1 87% 86 29.98 0.0
29 02:35 SE 6 10.00 Fair CLR 80.4 76.3 87% 86 29.97 0.0
29 02:15 S 7 10.00 Fair CLR 80.6 76.5 87% 87 29.97 0.0
29 01:55 SE 7 10.00 Fair CLR 81 76.6 87% 88 29.98 0.0
29 01:35 SE 7 10.00 Fair CLR 81.1 76.5 86% 88 29.97 0.0
29 01:15 SE 6 10.00 Fair CLR 81.3 76.5 85% 88 29.98 0.0
29 00:55 SE 5 10.00 Fair CLR 81.5 76.6 85% 89 29.98 0.0
29 00:35 SE 5 10.00 Fair CLR 81.7 76.1 83% 89 29.98 0.0
29 00:15 SE 7 10.00 Fair CLR 82 76.3 83% 90 29.99 0.0
28 23:55 SE 6 10.00 Fair CLR 82.4 76.3 82% 90 30 0.0
28 23:35 S 5 10.00 Fair CLR 82.8 76.3 81% 91 30 0.0
28 23:15 SE 3 10.00 Fair CLR 83.3 76.5 80% 92 30.01 0.0
28 22:55 SE 7 10.00 Fair CLR 83.8 77 80% 94 30 0.0
28 22:35 SE 7 10.00 Fair CLR 84.2 77.4 80% 95 30 0.0
28 22:15 SE 6 10.00 Fair CLR 84.6 77.4 79% 95 29.99 0.0
28 21:55 SE 9 10.00 Fair CLR 85.1 77.5 78% 96 29.99 0.0
28 21:35 SE 10 10.00 Fair CLR 85.6 77 75% 97 29.99 0.0
28 21:15 SE 13 10.00 Fair CLR 86.2 75.9 72% 96 29.98 0.0
28 20:55 SE 12 10.00 Fair CLR 86.7 74.1 66% 95 29.97 0.0
28 20:35 SE 8 10.00 Fair CLR 87.4 73.8 64% 96 29.97 0.0
28 20:15 SE 12 10.00 Fair CLR 88.2 72.3 60% 95 29.95 0.0
28 19:55 SE 12 G 20 10.00 Fair CLR 89.1 70.3 54% 95 29.94 0.0
28 19:35 Calm 10.00 Fair CLR 90.3 70.7 53% 96 29.93 0.0
28 19:15 SE 16 G 22 10.00 Fair CLR 92.3 70 48% 98 29.93 0.0
28 18:55 SE 15 10.00 Fair CLR 93.9 65.8 40% 97 29.92 0.0
28 18:35 E 15 G 23 10.00 Fair CLR 95 65.7 38% 98 29.91 0.0
28 18:15 SE 13 10.00 Fair CLR 96.1 65.7 37% 99 29.9 0.0
28 17:55 SE 16 10.00 Fair CLR 96.4 66.7 38% 100 29.9 0.0
28 17:35 E 16 10.00 Fair CLR 97.7 67.1 37% 102 29.9 0.0
28 17:15 E 17 G 23 10.00 Fair CLR 99.7 66.4 34% 104 29.9 0.0
28 16:55 SE 17 G 22 10.00 Fair CLR 100.8 67.3 34% 106 29.9 0.0
28 16:35 E 15 G 20 10.00 Fair CLR 100 68.2 36% 106 29.9 0.0
28 16:15 SE 9 G 21 10.00 A Few Clouds FEW080 102 68.2 33% 108 29.9 0.0
28 15:55 SE 15 G 23 10.00 A Few Clouds FEW080 103.1 66.4 30% 108 29.91 0.0
28 15:35 E 5 G 17 10.00 Fair CLR 103.5 64 28% 107 29.92 0.0
28 15:15 SE 8 10.00 A Few Clouds FEW080 102.7 64.4 29% 106 29.93 0.0
28 14:55 Vrbl 5 10.00 A Few Clouds FEW080 102.6 64.6 29% 106 29.94 0.0
28 14:35 Vrbl 3 10.00 Fair CLR 103.3 64.9 29% 107 29.95 0.0
28 14:15 Vrbl 7 10.00 A Few Clouds FEW370 103.5 65.1 29% 108 29.96 0.0
28 13:55 SE 12 10.00 A Few Clouds FEW350 102.2 64.6 29% 106 29.97 0.0
28 13:35 SE 10 10.00 A Few Clouds FEW310 101.5 65.8 31% 106 29.98 0.0
28 13:15 Vrbl 3 10.00 A Few Clouds FEW300 100.4 65.7 32% 104 29.98 0.0
28 12:55 Vrbl 6 10.00 A Few Clouds FEW350 99.9 66.6 34% 104 29.99 0.0
28 12:35 Vrbl 6 10.00 Fair CLR 98.8 66.9 35% 103 30 0.0
28 12:15 E 9 10.00 Fair CLR 97.3 68.4 39% 103 30 0.0
28 11:55 S 7 10.00 Fair CLR 95.7 68 40% 101 30 0.0
28 11:35 Vrbl 3 10.00 Fair CLR 94.5 70.9 46% 102 30.01 0.0
28 11:15 SE 8 10.00 Fair CLR 93.4 73.9 53% 104 30.01 0.0
28 10:55 SE 6 10.00 Fair CLR 91.8 75.2 58% 103 30.02 0.0
28 10:35 S 9 10.00 Fair CLR 90.3 76.3 63% 103 30.02 0.0
28 10:15 SE 12 10.00 Fair CLR 88.3 77 69% 101 30.02 0.0
28 09:55 SE 7 10.00 A Few Clouds FEW021 87.4 77.7 73% 100 30.02 0.0
28 09:35 SE 8 10.00 Fair CLR 86.7 78.1 76% 100 30.01 0.0
28 09:15 S 7 10.00 Fair CLR 85.1 78.1 80% 97 30.01 0.0
28 08:55 Calm 10.00 Fair CLR 82.6 77.9 86% 92 30.01 0.0
28 08:35 NE 5 9.00 Fair CLR 79.7 77 92% 85 30.01 0.0
28 08:15 E 5 9.00 Fair CLR 77.4 75.2 93% 79 30.01 0.0
28 07:55 NE 5 9.00 Fair CLR 75.6 73.4 93% 75 30 0.0
28 07:35 NE 5 9.00 Fair CLR 74.3 72 92% 29.99 0.0
28 07:15 E 3 8.00 Fair CLR 74.1 71.4 91% 29.98 0.0
28 06:55 NE 3 10.00 Fair CLR 74.7 72.1 92% 29.98 0.0
28 06:35 NE 5 10.00 Fair CLR 74.8 72.1 91% 29.97 0.0
28 06:15 E 5 10.00 Fair CLR 74.8 72.1 91% 29.97 0.0
28 05:55 E 5 10.00 Fair CLR 75.2 72.3 91% 74 29.97 0.0
28 05:35 E 3 10.00 Fair CLR 75.4 72.1 90% 75 29.96 0.0
28 05:15 E 3 10.00 Fair CLR 75.4 72 89% 75 29.96 0.0
28 04:55 E 3 10.00 Fair CLR 75.9 72.3 89% 76 29.96 0.0
28 04:35 SE 5 10.00 Fair CLR 76.5 72.7 88% 77 29.96 0.0
28 04:15 E 5 10.00 Fair CLR 77 72.3 86% 78 29.96 0.0
28 03:55 Calm 10.00 Fair CLR 77.7 72.9 85% 80 29.95 0.0
28 03:35 SE 3 10.00 Fair CLR 77.9 72.7 84% 80 29.95 0.0
28 03:15 SE 5 10.00 Fair CLR 78.4 73.2 84% 81 29.95 0.0
28 02:55 E 3 10.00 Fair CLR 79 72.7 81% 82 29.96 0.0
28 02:35 Calm 10.00 Fair CLR 79.7 73 80% 84 29.96 0.0
28 02:15 SE 6 10.00 Fair CLR 79.9 73.6 81% 84 29.97 0.0
28 01:55 SE 5 10.00 Fair CLR 80.2 73.9 81% 85 29.97 0.0
28 01:35 E 3 10.00 Fair CLR 80.6 74.1 81% 86 29.97 0.0
28 01:15 S 8 10.00 Fair CLR 80.8 74.7 82% 86 29.96 0.0
28 00:55 SE 6 10.00 Fair CLR 81.3 74.7 80% 87 29.96 0.0
28 00:35 SE 7 10.00 Fair CLR 81.7 75 80% 88 29.96 0.0
28 00:15 SE 5 10.00 Fair CLR 82 75.2 80% 89 29.96 0.0
27 23:55 SE 6 10.00 Fair CLR 82.4 75.2 79% 89 29.95 0.0
27 23:35 SE 6 10.00 Fair CLR 82.9 75.4 78% 91 29.95 0.0
27 23:15 E 6 10.00 Fair CLR 83.7 75 75% 91 29.95 0.0
Date Time (cdt) Wind (mph) Vis. (mi.) Weather Sky Cond. Air Dwpt Max. Min. Relative Humidity Wind Chill (°F) Heat Index (°F) altimeter (in) sea level (mb) 1 hr 3 hr 6 hr
6 hour
Temperature (ºF) Pressure Precipitation (in)